createdAt,value
2023-04-15T00:03:58.143Z,101537.63
2023-04-15T00:09:21.138Z,101534.19
2023-04-15T00:14:43.358Z,101531.19
2023-04-15T00:20:06.909Z,101545.41
2023-04-15T00:25:29.623Z,101546.09
2023-04-15T00:30:51.773Z,101548.41
2023-04-15T00:36:14.186Z,101552.72
2023-04-15T00:41:40.476Z,101514.69
2023-04-15T00:47:06.616Z,101518.66
2023-04-15T00:52:29.069Z,101512.91
2023-04-15T00:57:51.904Z,101522.44
2023-04-15T01:03:17.310Z,101522.13
2023-04-15T01:08:40.016Z,101535.31
2023-04-15T01:14:04.472Z,101524.59
2023-04-15T01:19:28.106Z,101540.44
2023-04-15T01:25:17.088Z,101571.28
2023-04-15T01:30:39.457Z,101556.78
2023-04-15T01:36:02.227Z,101543.91
2023-04-15T01:41:28.793Z,101580.03
2023-04-15T01:46:55.063Z,101593.59
2023-04-15T01:52:18.904Z,101594.06
2023-04-15T01:57:42.250Z,101583.84
2023-04-15T02:03:05.837Z,101596.38
2023-04-15T02:08:29.137Z,101604.97
2023-04-15T02:13:52.895Z,101611.88
2023-04-15T02:19:16.174Z,101619.81
2023-04-15T02:24:39.357Z,101631.19
2023-04-15T02:30:02.646Z,101619.63
2023-04-15T02:35:26.486Z,101645.19
2023-04-15T02:40:52.677Z,101651.16
2023-04-15T02:46:18.186Z,101605.09
2023-04-15T02:51:42.654Z,101636.97
2023-04-15T02:57:07.323Z,101653.16
2023-04-15T03:02:39.327Z,101673.09
2023-04-15T03:08:03.663Z,101664.50
2023-04-15T03:13:26.931Z,101668.81
2023-04-15T03:18:52.263Z,101685.16
2023-04-15T03:24:17.532Z,101681.53
2023-04-15T03:29:41.734Z,101691.75
2023-04-15T03:35:05.412Z,101703.97
2023-04-15T03:40:28.772Z,101718.50
2023-04-15T03:45:52.162Z,101724.56
2023-04-15T03:51:15.324Z,101734.91
2023-04-15T03:56:38.817Z,101738.00
2023-04-15T04:02:02.541Z,101744.56
2023-04-15T04:07:26.032Z,101743.50
2023-04-15T04:12:49.422Z,101744.22
2023-04-15T04:18:13.257Z,101747.84
2023-04-15T04:23:36.570Z,101754.78
2023-04-15T04:29:00.217Z,101765.13
2023-04-15T04:34:23.719Z,101759.00
2023-04-15T04:39:47.213Z,101762.03
2023-04-15T04:45:10.829Z,101748.00
2023-04-15T04:50:34.098Z,101766.91
2023-04-15T04:55:58.807Z,101773.69
2023-04-15T05:01:22.506Z,101764.53
2023-04-15T05:06:46.540Z,101760.66
2023-04-15T05:18:21.923Z,101742.53
2023-04-15T05:23:45.193Z,101757.66
2023-04-15T05:29:09.162Z,101769.59
2023-04-15T05:34:36.111Z,101779.78
2023-04-15T05:40:01.924Z,101793.34
2023-04-15T05:45:25.854Z,101752.72
2023-04-15T05:50:53.262Z,101783.53
2023-04-15T05:56:22.959Z,101758.56
2023-04-15T06:01:46.768Z,101800.00
2023-04-15T06:07:10.374Z,101772.56
2023-04-15T06:12:33.953Z,101791.34
2023-04-15T06:17:57.145Z,101778.47
2023-04-15T06:23:20.411Z,101770.66
2023-04-15T06:28:43.925Z,101801.81
2023-04-15T06:34:07.358Z,101770.69
2023-04-15T06:39:30.505Z,101802.50
2023-04-15T06:44:59.820Z,101806.59
2023-04-15T06:50:31.168Z,101770.16
2023-04-15T06:55:56.852Z,101775.94
2023-04-15T07:01:20.958Z,101779.63
2023-04-15T07:06:45.932Z,101770.69
2023-04-15T07:12:13.083Z,101775.78
2023-04-15T07:17:36.812Z,101811.41
2023-04-15T07:22:59.979Z,101787.28
2023-04-15T07:28:23.430Z,101776.22
2023-04-15T07:33:47.348Z,101758.72
2023-04-15T07:39:11.209Z,101772.94
2023-04-15T07:44:34.600Z,101770.47
2023-04-15T07:49:58.097Z,101784.66
2023-04-15T07:55:23.532Z,101791.66
2023-04-15T08:00:52.020Z,101791.81
2023-04-15T08:06:15.664Z,101795.09
2023-04-15T08:11:39.004Z,101783.19
2023-04-15T08:17:02.347Z,101769.44
2023-04-15T08:22:26.093Z,101787.59
2023-04-15T08:27:49.739Z,101791.25
2023-04-15T08:33:12.820Z,101779.53
2023-04-15T08:38:36.832Z,101777.47
2023-04-15T08:44:04.630Z,101787.84
2023-04-15T08:49:29.064Z,101783.16
2023-04-15T08:54:53.671Z,101783.97
2023-04-15T09:00:20.540Z,101769.34
2023-04-15T09:05:43.928Z,101767.41
2023-04-15T09:11:07.313Z,101772.06
2023-04-15T09:16:31.372Z,101770.91
2023-04-15T09:21:58.977Z,101778.84
2023-04-15T09:27:23.097Z,101765.41
2023-04-15T09:32:55.115Z,101774.19
2023-04-15T09:38:18.080Z,101770.09
2023-04-15T09:43:44.121Z,101757.94
2023-04-15T09:49:11.602Z,101756.19
2023-04-15T09:54:40.744Z,101760.28
2023-04-15T10:00:13.013Z,101750.41
2023-04-15T10:05:58.343Z,101725.41
2023-04-15T10:11:24.828Z,101744.38
2023-04-15T10:17:05.983Z,101724.06
2023-04-15T10:22:42.103Z,101717.13
2023-04-15T10:28:37.349Z,101718.69
2023-04-15T10:34:20.878Z,101739.97
2023-04-15T10:39:48.603Z,101716.47
2023-04-15T10:45:19.274Z,101729.16
2023-04-15T10:50:56.440Z,101728.44
2023-04-15T10:56:19.245Z,101742.44
2023-04-15T11:01:52.735Z,101726.94
2023-04-15T11:07:34.965Z,101735.75
2023-04-15T11:12:59.606Z,101724.63
2023-04-15T11:18:24.347Z,101720.88
2023-04-15T11:23:47.951Z,101690.16
2023-04-15T11:29:18.538Z,101701.13
2023-04-15T11:34:42.815Z,101714.47
2023-04-15T11:40:10.218Z,101674.56
2023-04-15T11:45:33.531Z,101674.84
2023-04-15T11:51:11.441Z,101671.50
2023-04-15T11:56:34.142Z,101671.56
2023-04-15T12:01:56.695Z,101671.19
2023-04-15T12:07:18.962Z,101677.03
2023-04-15T12:12:42.228Z,101674.31
2023-04-15T12:18:05.137Z,101654.41
2023-04-15T12:23:28.440Z,101665.91
2023-04-15T12:28:56.260Z,101657.94
2023-04-15T12:34:19.522Z,101655.72
2023-04-15T12:39:44.583Z,101665.50
2023-04-15T12:45:07.450Z,101659.00
2023-04-15T12:50:29.242Z,101635.63
2023-04-15T12:55:51.090Z,101636.72
2023-04-15T13:01:13.084Z,101635.25
2023-04-15T13:06:34.962Z,101657.13
2023-04-15T13:11:58.067Z,101646.84
2023-04-15T13:17:22.489Z,101649.47
2023-04-15T13:22:44.251Z,101632.41
2023-04-15T13:28:06.170Z,101639.34
2023-04-15T13:33:28.965Z,101634.94
2023-04-15T13:38:51.770Z,101629.72
2023-04-15T13:44:14.607Z,101626.53
2023-04-15T13:49:37.344Z,101627.03
2023-04-15T13:55:18.547Z,101627.19
2023-04-15T14:00:42.843Z,101601.31
2023-04-15T14:06:06.269Z,101611.19
2023-04-15T14:11:28.844Z,101606.69
2023-04-15T14:16:51.270Z,101620.72
2023-04-15T14:22:13.640Z,101621.81
2023-04-15T14:27:36.099Z,101621.22
2023-04-15T14:32:58.298Z,101620.81
2023-04-15T14:38:23.127Z,101619.00
2023-04-15T14:43:45.198Z,101614.06
2023-04-15T14:49:07.321Z,101601.28
2023-04-15T14:54:29.705Z,101599.50
2023-04-15T14:59:56.606Z,101584.00
2023-04-15T15:05:18.646Z,101585.31
2023-04-15T15:10:49.070Z,101600.97
2023-04-15T15:16:14.317Z,101578.00
2023-04-15T15:21:39.814Z,101588.69
2023-04-15T15:27:02.571Z,101589.09
2023-04-15T15:32:24.871Z,101595.34
2023-04-15T15:37:47.070Z,101595.84
2023-04-15T15:43:09.268Z,101598.41
2023-04-15T15:48:31.816Z,101577.63
2023-04-15T15:53:53.959Z,101595.63
2023-04-15T15:59:16.696Z,101573.44
2023-04-15T16:04:39.807Z,101593.34
2023-04-15T16:10:02.389Z,101593.69
2023-04-15T16:15:27.064Z,101584.31
2023-04-15T16:20:53.952Z,101582.63
2023-04-15T16:26:18.316Z,101604.00
2023-04-15T16:31:43.256Z,101601.06
2023-04-15T16:37:13.750Z,101593.13
2023-04-15T16:42:37.377Z,101607.75
2023-04-15T16:48:00.153Z,101583.81
2023-04-15T16:53:22.275Z,101612.13
2023-04-15T16:58:44.495Z,101632.81
2023-04-15T17:04:08.173Z,101626.00
2023-04-15T17:09:30.280Z,101636.63
2023-04-15T17:14:52.180Z,101633.91
2023-04-15T17:20:14.869Z,101628.31
2023-04-15T17:25:38.430Z,101635.22
2023-04-15T17:31:07.832Z,101638.03
2023-04-15T17:36:51.866Z,101610.66
2023-04-15T17:42:33.845Z,101627.94
2023-04-15T17:48:15.725Z,101644.56
2023-04-15T17:53:57.802Z,101639.03
2023-04-15T17:59:44.287Z,101639.53
2023-04-15T18:05:26.850Z,101645.75
2023-04-15T18:11:09.662Z,101646.84
2023-04-15T18:16:53.359Z,101629.59
2023-04-15T18:22:35.278Z,101642.06
2023-04-15T18:27:57.513Z,101622.13
2023-04-15T18:33:19.609Z,101622.72
2023-04-15T18:38:41.792Z,101633.47
2023-04-15T18:44:04.113Z,101637.16
2023-04-15T18:49:27.913Z,101623.97
2023-04-15T18:54:50.134Z,101629.38
2023-04-15T19:00:13.406Z,101634.97
2023-04-15T19:05:37.038Z,101621.34
2023-04-15T19:10:59.192Z,101608.41
2023-04-15T19:16:21.778Z,101618.34
2023-04-15T19:21:44.053Z,101613.69
2023-04-15T19:27:06.432Z,101617.53
2023-04-15T19:32:28.714Z,101641.63
2023-04-15T19:37:50.986Z,101626.81
2023-04-15T19:43:13.035Z,101632.09
2023-04-15T19:48:35.158Z,101635.75
2023-04-15T19:53:57.457Z,101612.72
2023-04-15T19:59:19.822Z,101620.84
2023-04-15T20:04:42.286Z,101614.09
2023-04-15T20:10:12.214Z,101628.41
2023-04-15T20:15:34.706Z,101617.91
2023-04-15T20:20:57.063Z,101620.38
2023-04-15T20:26:20.190Z,101639.91
2023-04-15T20:31:42.518Z,101625.44
2023-04-15T20:37:05.033Z,101617.59
2023-04-15T20:42:26.940Z,101650.16
2023-04-15T20:47:49.559Z,101654.63
2023-04-15T20:53:11.744Z,101660.63
2023-04-15T20:58:33.784Z,101666.88
2023-04-15T21:03:56.076Z,101655.19
2023-04-15T21:09:18.076Z,101668.47
2023-04-15T21:14:41.300Z,101669.34
2023-04-15T21:20:03.226Z,101675.63
2023-04-15T21:25:25.602Z,101653.66
2023-04-15T21:30:48.005Z,101680.94
2023-04-15T21:36:10.361Z,101691.50
2023-04-15T21:41:33.262Z,101678.50
2023-04-15T21:46:55.712Z,101690.44
2023-04-15T21:52:18.294Z,101714.19
2023-04-15T21:57:40.261Z,101708.81
2023-04-15T22:03:02.756Z,101708.84
2023-04-15T22:08:25.335Z,101706.88
2023-04-15T22:13:47.625Z,101713.03
2023-04-15T22:19:10.869Z,101708.41
2023-04-15T22:24:40.799Z,101703.63
2023-04-15T22:30:03.792Z,101717.16
2023-04-15T22:35:27.709Z,101743.41
2023-04-15T22:40:49.858Z,101721.47
2023-04-15T22:46:12.523Z,101762.78
2023-04-15T22:51:34.610Z,101721.63
2023-04-15T22:56:57.005Z,101766.72
2023-04-15T23:02:19.496Z,101762.72
2023-04-15T23:07:41.660Z,101776.78
2023-04-15T23:13:03.673Z,101779.56
2023-04-15T23:18:25.684Z,101776.28
2023-04-15T23:23:47.842Z,101769.31
2023-04-15T23:29:10.354Z,101782.69
2023-04-15T23:34:32.671Z,101786.78
2023-04-15T23:39:56.243Z,101788.25
2023-04-15T23:45:18.871Z,101773.34
2023-04-15T23:50:41.067Z,101773.84
2023-04-15T23:56:03.874Z,101773.16
